sensor_id;sensor_type;location;lat;lon;timestamp;P1;durP1;ratioP1;P2;durP2;ratioP2
68987;SDS011;56038;46.080;11.116;2022-11-14T00:01:07;23.50;;;15.70;;
68987;SDS011;56038;46.080;11.116;2022-11-14T00:06:10;22.38;;;15.32;;
68987;SDS011;56038;46.080;11.116;2022-11-14T00:11:12;26.00;;;16.83;;
68987;SDS011;56038;46.080;11.116;2022-11-14T00:16:15;23.35;;;16.08;;
68987;SDS011;56038;46.080;11.116;2022-11-14T00:21:17;21.45;;;16.05;;
68987;SDS011;56038;46.080;11.116;2022-11-14T00:26:19;22.70;;;16.42;;
68987;SDS011;56038;46.080;11.116;2022-11-14T00:31:22;23.33;;;16.00;;
68987;SDS011;56038;46.080;11.116;2022-11-14T00:36:24;24.35;;;16.13;;
68987;SDS011;56038;46.080;11.116;2022-11-14T00:41:26;25.17;;;16.30;;
68987;SDS011;56038;46.080;11.116;2022-11-14T00:46:29;24.38;;;17.08;;
68987;SDS011;56038;46.080;11.116;2022-11-14T00:51:31;23.70;;;16.05;;
68987;SDS011;56038;46.080;11.116;2022-11-14T00:56:33;25.02;;;17.55;;
68987;SDS011;56038;46.080;11.116;2022-11-14T01:01:36;28.30;;;18.83;;
68987;SDS011;56038;46.080;11.116;2022-11-14T01:06:37;28.55;;;17.67;;
68987;SDS011;56038;46.080;11.116;2022-11-14T01:11:39;26.15;;;17.55;;
68987;SDS011;56038;46.080;11.116;2022-11-14T01:16:42;25.70;;;18.45;;
68987;SDS011;56038;46.080;11.116;2022-11-14T01:21:44;27.73;;;18.95;;
68987;SDS011;56038;46.080;11.116;2022-11-14T01:26:46;29.42;;;18.58;;
68987;SDS011;56038;46.080;11.116;2022-11-14T01:31:49;27.45;;;18.08;;
68987;SDS011;56038;46.080;11.116;2022-11-14T01:36:51;26.13;;;17.92;;
68987;SDS011;56038;46.080;11.116;2022-11-14T01:41:53;28.92;;;19.73;;
68987;SDS011;56038;46.080;11.116;2022-11-14T01:46:56;29.85;;;18.83;;
68987;SDS011;56038;46.080;11.116;2022-11-14T01:51:59;29.33;;;18.48;;
68987;SDS011;56038;46.080;11.116;2022-11-14T01:57:03;29.20;;;19.77;;
68987;SDS011;56038;46.080;11.116;2022-11-14T02:02:11;31.80;;;20.65;;
68987;SDS011;56038;46.080;11.116;2022-11-14T02:07:16;32.00;;;19.98;;
68987;SDS011;56038;46.080;11.116;2022-11-14T02:12:19;28.40;;;18.58;;
68987;SDS011;56038;46.080;11.116;2022-11-14T02:17:24;28.95;;;18.25;;
68987;SDS011;56038;46.080;11.116;2022-11-14T02:22:28;27.08;;;18.13;;
68987;SDS011;56038;46.080;11.116;2022-11-14T02:27:30;26.95;;;18.17;;
68987;SDS011;56038;46.080;11.116;2022-11-14T02:32:34;24.77;;;16.35;;
68987;SDS011;56038;46.080;11.116;2022-11-14T02:37:37;28.85;;;16.17;;
68987;SDS011;56038;46.080;11.116;2022-11-14T02:42:39;25.77;;;17.00;;
68987;SDS011;56038;46.080;11.116;2022-11-14T02:47:42;23.35;;;16.63;;
68987;SDS011;56038;46.080;11.116;2022-11-14T02:52:45;21.63;;;16.13;;
68987;SDS011;56038;46.080;11.116;2022-11-14T02:57:47;23.40;;;14.95;;
68987;SDS011;56038;46.080;11.116;2022-11-14T03:02:49;22.17;;;15.77;;
68987;SDS011;56038;46.080;11.116;2022-11-14T03:07:54;26.02;;;16.65;;
68987;SDS011;56038;46.080;11.116;2022-11-14T03:12:56;25.33;;;16.75;;
68987;SDS011;56038;46.080;11.116;2022-11-14T03:17:58;25.15;;;16.38;;
68987;SDS011;56038;46.080;11.116;2022-11-14T03:23:02;24.65;;;16.70;;
68987;SDS011;56038;46.080;11.116;2022-11-14T03:28:04;26.98;;;16.52;;
68987;SDS011;56038;46.080;11.116;2022-11-14T03:33:06;25.25;;;15.23;;
68987;SDS011;56038;46.080;11.116;2022-11-14T03:38:09;23.75;;;14.95;;
68987;SDS011;56038;46.080;11.116;2022-11-14T03:43:11;24.70;;;16.10;;
68987;SDS011;56038;46.080;11.116;2022-11-14T03:48:13;25.38;;;15.93;;
68987;SDS011;56038;46.080;11.116;2022-11-14T03:53:16;24.13;;;15.93;;
68987;SDS011;56038;46.080;11.116;2022-11-14T03:58:18;23.33;;;15.88;;
68987;SDS011;56038;46.080;11.116;2022-11-14T04:03:20;22.75;;;15.57;;
68987;SDS011;56038;46.080;11.116;2022-11-14T04:08:23;20.70;;;14.70;;
68987;SDS011;56038;46.080;11.116;2022-11-14T04:13:25;24.90;;;15.75;;
68987;SDS011;56038;46.080;11.116;2022-11-14T04:18:26;23.05;;;15.38;;
68987;SDS011;56038;46.080;11.116;2022-11-14T04:23:30;26.15;;;16.75;;
68987;SDS011;56038;46.080;11.116;2022-11-14T04:28:32;22.80;;;15.88;;
68987;SDS011;56038;46.080;11.116;2022-11-14T04:33:33;21.95;;;15.45;;
68987;SDS011;56038;46.080;11.116;2022-11-14T04:38:36;25.55;;;16.50;;
68987;SDS011;56038;46.080;11.116;2022-11-14T04:43:38;25.67;;;16.08;;
68987;SDS011;56038;46.080;11.116;2022-11-14T04:48:40;23.35;;;15.85;;
68987;SDS011;56038;46.080;11.116;2022-11-14T04:53:43;20.42;;;14.02;;
68987;SDS011;56038;46.080;11.116;2022-11-14T04:58:45;24.33;;;14.75;;
68987;SDS011;56038;46.080;11.116;2022-11-14T05:03:47;20.98;;;13.30;;
68987;SDS011;56038;46.080;11.116;2022-11-14T05:08:50;21.15;;;14.15;;
68987;SDS011;56038;46.080;11.116;2022-11-14T05:13:51;22.10;;;14.95;;
68987;SDS011;56038;46.080;11.116;2022-11-14T05:18:53;15.60;;;11.10;;
68987;SDS011;56038;46.080;11.116;2022-11-14T05:23:56;16.50;;;10.68;;
68987;SDS011;56038;46.080;11.116;2022-11-14T05:28:58;17.23;;;11.27;;
68987;SDS011;56038;46.080;11.116;2022-11-14T05:34:00;14.30;;;10.02;;
68987;SDS011;56038;46.080;11.116;2022-11-14T05:39:03;17.13;;;10.85;;
68987;SDS011;56038;46.080;11.116;2022-11-14T05:44:05;14.60;;;9.80;;
68987;SDS011;56038;46.080;11.116;2022-11-14T05:49:07;20.00;;;13.50;;
68987;SDS011;56038;46.080;11.116;2022-11-14T05:54:10;20.77;;;13.35;;
68987;SDS011;56038;46.080;11.116;2022-11-14T05:59:12;18.65;;;12.23;;
68987;SDS011;56038;46.080;11.116;2022-11-14T06:04:13;14.52;;;9.48;;
68987;SDS011;56038;46.080;11.116;2022-11-14T06:09:17;11.10;;;8.90;;
68987;SDS011;56038;46.080;11.116;2022-11-14T06:14:18;13.60;;;9.90;;
68987;SDS011;56038;46.080;11.116;2022-11-14T06:19:20;16.27;;;11.25;;
68987;SDS011;56038;46.080;11.116;2022-11-14T06:24:23;16.98;;;12.52;;
68987;SDS011;56038;46.080;11.116;2022-11-14T06:29:25;20.30;;;13.82;;
68987;SDS011;56038;46.080;11.116;2022-11-14T06:34:28;15.23;;;10.98;;
68987;SDS011;56038;46.080;11.116;2022-11-14T06:39:32;10.48;;;8.18;;
68987;SDS011;56038;46.080;11.116;2022-11-14T06:44:33;9.93;;;7.47;;
68987;SDS011;56038;46.080;11.116;2022-11-14T06:49:35;14.23;;;8.05;;
68987;SDS011;56038;46.080;11.116;2022-11-14T06:54:38;12.60;;;10.40;;
68987;SDS011;56038;46.080;11.116;2022-11-14T06:59:40;20.92;;;12.82;;
68987;SDS011;56038;46.080;11.116;2022-11-14T07:04:42;19.90;;;13.15;;
68987;SDS011;56038;46.080;11.116;2022-11-14T07:09:45;18.27;;;13.88;;
68987;SDS011;56038;46.080;11.116;2022-11-14T07:14:47;19.10;;;13.93;;
68987;SDS011;56038;46.080;11.116;2022-11-14T07:19:48;28.13;;;18.90;;
68987;SDS011;56038;46.080;11.116;2022-11-14T07:24:52;21.38;;;13.75;;
68987;SDS011;56038;46.080;11.116;2022-11-14T07:29:53;18.67;;;13.80;;
68987;SDS011;56038;46.080;11.116;2022-11-14T07:34:55;22.25;;;14.90;;
68987;SDS011;56038;46.080;11.116;2022-11-14T07:39:58;20.70;;;14.65;;
68987;SDS011;56038;46.080;11.116;2022-11-14T07:45:00;14.45;;;9.88;;
68987;SDS011;56038;46.080;11.116;2022-11-14T07:50:02;11.18;;;8.98;;
68987;SDS011;56038;46.080;11.116;2022-11-14T07:55:06;14.77;;;8.63;;
68987;SDS011;56038;46.080;11.116;2022-11-14T08:00:08;11.02;;;8.40;;
68987;SDS011;56038;46.080;11.116;2022-11-14T08:05:11;12.70;;;9.40;;
68987;SDS011;56038;46.080;11.116;2022-11-14T08:10:14;16.90;;;10.27;;
68987;SDS011;56038;46.080;11.116;2022-11-14T08:15:17;12.88;;;9.35;;
68987;SDS011;56038;46.080;11.116;2022-11-14T08:20:19;11.50;;;9.68;;
68987;SDS011;56038;46.080;11.116;2022-11-14T08:25:22;14.35;;;10.82;;
68987;SDS011;56038;46.080;11.116;2022-11-14T08:30:24;12.85;;;10.13;;
68987;SDS011;56038;46.080;11.116;2022-11-14T08:35:26;14.25;;;10.20;;
68987;SDS011;56038;46.080;11.116;2022-11-14T08:40:29;16.50;;;9.95;;
68987;SDS011;56038;46.080;11.116;2022-11-14T08:45:31;17.83;;;10.00;;
68987;SDS011;56038;46.080;11.116;2022-11-14T08:50:32;14.70;;;10.55;;
68987;SDS011;56038;46.080;11.116;2022-11-14T08:55:35;15.90;;;11.25;;
68987;SDS011;56038;46.080;11.116;2022-11-14T09:00:38;16.83;;;11.38;;
68987;SDS011;56038;46.080;11.116;2022-11-14T09:05:41;15.32;;;12.32;;
68987;SDS011;56038;46.080;11.116;2022-11-14T09:10:45;15.65;;;11.77;;
68987;SDS011;56038;46.080;11.116;2022-11-14T09:15:46;18.20;;;11.82;;
68987;SDS011;56038;46.080;11.116;2022-11-14T09:20:48;15.63;;;11.00;;
68987;SDS011;56038;46.080;11.116;2022-11-14T09:25:51;14.45;;;11.23;;
68987;SDS011;56038;46.080;11.116;2022-11-14T09:30:58;15.48;;;11.32;;
68987;SDS011;56038;46.080;11.116;2022-11-14T09:36:01;16.35;;;12.88;;
68987;SDS011;56038;46.080;11.116;2022-11-14T09:41:13;16.98;;;12.13;;
68987;SDS011;56038;46.080;11.116;2022-11-14T09:46:24;15.43;;;10.82;;
68987;SDS011;56038;46.080;11.116;2022-11-14T09:51:32;16.30;;;12.02;;
68987;SDS011;56038;46.080;11.116;2022-11-14T09:56:37;17.40;;;11.67;;
68987;SDS011;56038;46.080;11.116;2022-11-14T10:01:40;14.43;;;11.23;;
68987;SDS011;56038;46.080;11.116;2022-11-14T10:06:52;13.98;;;10.73;;
68987;SDS011;56038;46.080;11.116;2022-11-14T10:12:05;12.40;;;9.75;;
68987;SDS011;56038;46.080;11.116;2022-11-14T10:17:18;12.43;;;9.95;;
68987;SDS011;56038;46.080;11.116;2022-11-14T10:22:43;9.90;;;8.48;;
68987;SDS011;56038;46.080;11.116;2022-11-14T10:28:04;10.65;;;8.38;;
68987;SDS011;56038;46.080;11.116;2022-11-14T10:33:20;11.60;;;7.20;;
68987;SDS011;56038;46.080;11.116;2022-11-14T10:38:30;8.48;;;7.55;;
68987;SDS011;56038;46.080;11.116;2022-11-14T10:43:39;10.68;;;8.63;;
68987;SDS011;56038;46.080;11.116;2022-11-14T10:48:44;9.50;;;8.50;;
68987;SDS011;56038;46.080;11.116;2022-11-14T10:53:49;9.98;;;7.95;;
68987;SDS011;56038;46.080;11.116;2022-11-14T10:58:56;7.95;;;7.10;;
68987;SDS011;56038;46.080;11.116;2022-11-14T11:04:00;8.02;;;7.13;;
68987;SDS011;56038;46.080;11.116;2022-11-14T11:09:12;5.20;;;4.70;;
68987;SDS011;56038;46.080;11.116;2022-11-14T11:14:35;8.23;;;6.57;;
68987;SDS011;56038;46.080;11.116;2022-11-14T11:19:37;6.63;;;5.68;;
68987;SDS011;56038;46.080;11.116;2022-11-14T11:24:39;6.68;;;5.82;;
68987;SDS011;56038;46.080;11.116;2022-11-14T11:29:43;8.13;;;5.93;;
68987;SDS011;56038;46.080;11.116;2022-11-14T11:34:44;8.15;;;6.72;;
68987;SDS011;56038;46.080;11.116;2022-11-14T11:39:48;8.05;;;5.88;;
68987;SDS011;56038;46.080;11.116;2022-11-14T11:44:55;7.97;;;6.43;;
68987;SDS011;56038;46.080;11.116;2022-11-14T11:50:02;7.53;;;5.85;;
68987;SDS011;56038;46.080;11.116;2022-11-14T11:55:12;8.27;;;5.97;;
68987;SDS011;56038;46.080;11.116;2022-11-14T12:00:19;6.88;;;5.95;;
68987;SDS011;56038;46.080;11.116;2022-11-14T12:05:25;8.05;;;5.53;;
68987;SDS011;56038;46.080;11.116;2022-11-14T12:10:35;7.72;;;6.10;;
68987;SDS011;56038;46.080;11.116;2022-11-14T12:15:43;34.80;;;20.00;;
68987;SDS011;56038;46.080;11.116;2022-11-14T12:21:10;6.60;;;6.00;;
68987;SDS011;56038;46.080;11.116;2022-11-14T12:26:19;6.25;;;5.65;;
68987;SDS011;56038;46.080;11.116;2022-11-14T12:31:32;7.03;;;6.32;;
68987;SDS011;56038;46.080;11.116;2022-11-14T12:36:37;7.20;;;6.22;;
68987;SDS011;56038;46.080;11.116;2022-11-14T12:41:41;8.73;;;7.53;;
68987;SDS011;56038;46.080;11.116;2022-11-14T12:57:45;5.65;;;5.15;;
68987;SDS011;56038;46.080;11.116;2022-11-14T13:03:02;6.22;;;5.63;;
68987;SDS011;56038;46.080;11.116;2022-11-14T13:08:48;8.50;;;5.20;;
68987;SDS011;56038;46.080;11.116;2022-11-14T13:14:11;6.20;;;5.60;;
68987;SDS011;56038;46.080;11.116;2022-11-14T13:19:32;6.13;;;5.53;;
68987;SDS011;56038;46.080;11.116;2022-11-14T13:35:58;6.03;;;5.32;;
68987;SDS011;56038;46.080;11.116;2022-11-14T13:41:06;6.68;;;5.68;;
68987;SDS011;56038;46.080;11.116;2022-11-14T13:46:41;6.47;;;5.60;;
68987;SDS011;56038;46.080;11.116;2022-11-14T13:51:57;5.38;;;4.88;;
68987;SDS011;56038;46.080;11.116;2022-11-14T13:57:00;6.22;;;5.05;;
68987;SDS011;56038;46.080;11.116;2022-11-14T14:07:51;8.00;;;5.72;;
68987;SDS011;56038;46.080;11.116;2022-11-14T14:13:05;6.15;;;5.22;;
68987;SDS011;56038;46.080;11.116;2022-11-14T14:18:22;7.07;;;5.93;;
68987;SDS011;56038;46.080;11.116;2022-11-14T14:23:38;5.75;;;5.18;;
68987;SDS011;56038;46.080;11.116;2022-11-14T14:28:48;5.47;;;4.97;;
68987;SDS011;56038;46.080;11.116;2022-11-14T14:33:56;6.13;;;5.53;;
68987;SDS011;56038;46.080;11.116;2022-11-14T14:39:15;6.00;;;4.85;;
68987;SDS011;56038;46.080;11.116;2022-11-14T14:44:21;6.13;;;5.20;;
68987;SDS011;56038;46.080;11.116;2022-11-14T14:49:26;6.43;;;5.57;;
68987;SDS011;56038;46.080;11.116;2022-11-14T14:54:32;7.95;;;5.80;;
68987;SDS011;56038;46.080;11.116;2022-11-14T14:59:33;7.90;;;5.50;;
68987;SDS011;56038;46.080;11.116;2022-11-14T15:04:35;8.93;;;6.65;;
68987;SDS011;56038;46.080;11.116;2022-11-14T15:09:50;11.27;;;6.35;;
68987;SDS011;56038;46.080;11.116;2022-11-14T15:14:53;11.15;;;5.97;;
68987;SDS011;56038;46.080;11.116;2022-11-14T15:19:56;10.10;;;6.80;;
68987;SDS011;56038;46.080;11.116;2022-11-14T15:25:17;6.35;;;5.68;;
68987;SDS011;56038;46.080;11.116;2022-11-14T15:30:22;9.32;;;7.10;;
68987;SDS011;56038;46.080;11.116;2022-11-14T15:35:27;8.00;;;6.13;;
68987;SDS011;56038;46.080;11.116;2022-11-14T15:40:32;7.55;;;5.85;;
68987;SDS011;56038;46.080;11.116;2022-11-14T15:45:37;13.80;;;5.97;;
68987;SDS011;56038;46.080;11.116;2022-11-14T15:50:40;15.27;;;10.32;;
68987;SDS011;56038;46.080;11.116;2022-11-14T15:55:43;6.22;;;5.60;;
68987;SDS011;56038;46.080;11.116;2022-11-14T16:00:46;6.25;;;4.45;;
68987;SDS011;56038;46.080;11.116;2022-11-14T16:05:50;5.83;;;4.90;;
68987;SDS011;56038;46.080;11.116;2022-11-14T16:10:53;5.82;;;4.88;;
68987;SDS011;56038;46.080;11.116;2022-11-14T16:15:55;4.82;;;4.32;;
68987;SDS011;56038;46.080;11.116;2022-11-14T16:20:57;8.45;;;6.18;;
68987;SDS011;56038;46.080;11.116;2022-11-14T16:26:00;7.07;;;5.63;;
68987;SDS011;56038;46.080;11.116;2022-11-14T16:31:04;5.75;;;4.95;;
68987;SDS011;56038;46.080;11.116;2022-11-14T16:36:10;5.55;;;4.78;;
68987;SDS011;56038;46.080;11.116;2022-11-14T16:41:14;8.35;;;6.63;;
68987;SDS011;56038;46.080;11.116;2022-11-14T16:46:16;6.80;;;6.07;;
68987;SDS011;56038;46.080;11.116;2022-11-14T16:51:18;9.60;;;7.50;;
68987;SDS011;56038;46.080;11.116;2022-11-14T16:56:21;8.45;;;7.55;;
68987;SDS011;56038;46.080;11.116;2022-11-14T17:01:23;8.23;;;6.65;;
68987;SDS011;56038;46.080;11.116;2022-11-14T17:06:25;11.07;;;7.35;;
68987;SDS011;56038;46.080;11.116;2022-11-14T17:11:28;9.00;;;7.22;;
68987;SDS011;56038;46.080;11.116;2022-11-14T17:16:30;12.00;;;9.23;;
68987;SDS011;56038;46.080;11.116;2022-11-14T17:21:31;12.15;;;9.50;;
68987;SDS011;56038;46.080;11.116;2022-11-14T17:26:34;9.52;;;8.10;;
68987;SDS011;56038;46.080;11.116;2022-11-14T17:31:37;9.15;;;6.68;;
68987;SDS011;56038;46.080;11.116;2022-11-14T17:36:39;6.97;;;6.28;;
68987;SDS011;56038;46.080;11.116;2022-11-14T17:41:42;7.70;;;6.90;;
68987;SDS011;56038;46.080;11.116;2022-11-14T17:46:45;9.23;;;8.00;;
68987;SDS011;56038;46.080;11.116;2022-11-14T17:51:46;9.30;;;7.57;;
68987;SDS011;56038;46.080;11.116;2022-11-14T17:56:49;8.70;;;7.78;;
68987;SDS011;56038;46.080;11.116;2022-11-14T18:01:51;10.07;;;7.72;;
68987;SDS011;56038;46.080;11.116;2022-11-14T18:06:54;10.52;;;8.00;;
68987;SDS011;56038;46.080;11.116;2022-11-14T18:11:58;19.60;;;8.48;;
68987;SDS011;56038;46.080;11.116;2022-11-14T18:16:59;10.93;;;8.75;;
68987;SDS011;56038;46.080;11.116;2022-11-14T18:22:01;10.27;;;7.35;;
68987;SDS011;56038;46.080;11.116;2022-11-14T18:27:05;16.33;;;9.55;;
68987;SDS011;56038;46.080;11.116;2022-11-14T18:32:06;13.88;;;9.05;;
68987;SDS011;56038;46.080;11.116;2022-11-14T18:37:08;13.40;;;8.90;;
68987;SDS011;56038;46.080;11.116;2022-11-14T18:42:13;10.55;;;8.73;;
68987;SDS011;56038;46.080;11.116;2022-11-14T18:47:14;12.10;;;9.27;;
68987;SDS011;56038;46.080;11.116;2022-11-14T18:52:16;12.07;;;9.20;;
68987;SDS011;56038;46.080;11.116;2022-11-14T18:57:19;11.75;;;9.60;;
68987;SDS011;56038;46.080;11.116;2022-11-14T19:02:21;11.60;;;9.43;;
68987;SDS011;56038;46.080;11.116;2022-11-14T19:07:23;17.35;;;10.27;;
68987;SDS011;56038;46.080;11.116;2022-11-14T19:12:26;13.95;;;11.02;;
68987;SDS011;56038;46.080;11.116;2022-11-14T19:17:28;19.60;;;13.10;;
68987;SDS011;56038;46.080;11.116;2022-11-14T19:22:30;14.10;;;11.43;;
68987;SDS011;56038;46.080;11.116;2022-11-14T19:27:34;17.13;;;12.10;;
68987;SDS011;56038;46.080;11.116;2022-11-14T19:32:38;15.38;;;12.07;;
68987;SDS011;56038;46.080;11.116;2022-11-14T19:37:40;12.93;;;11.35;;
68987;SDS011;56038;46.080;11.116;2022-11-14T19:42:44;17.27;;;13.05;;
68987;SDS011;56038;46.080;11.116;2022-11-14T19:47:46;19.77;;;13.27;;
68987;SDS011;56038;46.080;11.116;2022-11-14T19:52:47;20.35;;;13.55;;
68987;SDS011;56038;46.080;11.116;2022-11-14T19:57:52;18.60;;;13.35;;
68987;SDS011;56038;46.080;11.116;2022-11-14T20:02:54;18.50;;;12.60;;
68987;SDS011;56038;46.080;11.116;2022-11-14T20:07:56;19.48;;;13.73;;
68987;SDS011;56038;46.080;11.116;2022-11-14T20:12:59;19.73;;;14.10;;
68987;SDS011;56038;46.080;11.116;2022-11-14T20:18:01;22.42;;;15.82;;
68987;SDS011;56038;46.080;11.116;2022-11-14T20:23:02;20.63;;;15.38;;
68987;SDS011;56038;46.080;11.116;2022-11-14T20:28:06;21.08;;;15.13;;
68987;SDS011;56038;46.080;11.116;2022-11-14T20:33:08;19.95;;;14.85;;
68987;SDS011;56038;46.080;11.116;2022-11-14T20:38:10;19.63;;;14.68;;
68987;SDS011;56038;46.080;11.116;2022-11-14T20:43:13;18.67;;;13.70;;
68987;SDS011;56038;46.080;11.116;2022-11-14T20:48:15;42.30;;;23.92;;
68987;SDS011;56038;46.080;11.116;2022-11-14T20:53:17;19.17;;;12.95;;
68987;SDS011;56038;46.080;11.116;2022-11-14T20:58:21;16.85;;;12.23;;
68987;SDS011;56038;46.080;11.116;2022-11-14T21:03:23;17.67;;;13.55;;
68987;SDS011;56038;46.080;11.116;2022-11-14T21:08:25;18.30;;;13.40;;
68987;SDS011;56038;46.080;11.116;2022-11-14T21:13:29;17.30;;;13.60;;
68987;SDS011;56038;46.080;11.116;2022-11-14T21:18:52;21.48;;;14.70;;
68987;SDS011;56038;46.080;11.116;2022-11-14T21:23:55;16.67;;;12.75;;
68987;SDS011;56038;46.080;11.116;2022-11-14T21:29:00;13.35;;;10.57;;
68987;SDS011;56038;46.080;11.116;2022-11-14T21:34:04;14.95;;;11.32;;
68987;SDS011;56038;46.080;11.116;2022-11-14T21:39:07;17.25;;;12.68;;
68987;SDS011;56038;46.080;11.116;2022-11-14T21:44:15;18.10;;;12.68;;
68987;SDS011;56038;46.080;11.116;2022-11-14T21:49:18;15.80;;;11.98;;
68987;SDS011;56038;46.080;11.116;2022-11-14T21:54:19;16.38;;;12.38;;
68987;SDS011;56038;46.080;11.116;2022-11-14T21:59:22;16.27;;;12.00;;
68987;SDS011;56038;46.080;11.116;2022-11-14T22:04:26;23.07;;;13.40;;
68987;SDS011;56038;46.080;11.116;2022-11-14T22:09:29;20.85;;;12.93;;
68987;SDS011;56038;46.080;11.116;2022-11-14T22:14:32;17.67;;;13.15;;
68987;SDS011;56038;46.080;11.116;2022-11-14T22:19:34;16.70;;;12.65;;
68987;SDS011;56038;46.080;11.116;2022-11-14T22:24:36;14.77;;;12.02;;
68987;SDS011;56038;46.080;11.116;2022-11-14T22:29:39;16.52;;;12.02;;
68987;SDS011;56038;46.080;11.116;2022-11-14T22:34:41;16.65;;;11.85;;
68987;SDS011;56038;46.080;11.116;2022-11-14T22:39:43;13.98;;;11.70;;
68987;SDS011;56038;46.080;11.116;2022-11-14T22:44:46;14.07;;;11.30;;
68987;SDS011;56038;46.080;11.116;2022-11-14T22:49:47;15.73;;;11.80;;
68987;SDS011;56038;46.080;11.116;2022-11-14T22:54:49;15.85;;;12.20;;
68987;SDS011;56038;46.080;11.116;2022-11-14T22:59:52;14.82;;;10.82;;
68987;SDS011;56038;46.080;11.116;2022-11-14T23:04:54;13.43;;;11.27;;
68987;SDS011;56038;46.080;11.116;2022-11-14T23:09:56;13.40;;;10.93;;
68987;SDS011;56038;46.080;11.116;2022-11-14T23:14:59;15.80;;;11.52;;
68987;SDS011;56038;46.080;11.116;2022-11-14T23:20:01;16.65;;;11.63;;
68987;SDS011;56038;46.080;11.116;2022-11-14T23:25:03;13.40;;;11.02;;
68987;SDS011;56038;46.080;11.116;2022-11-14T23:30:07;13.88;;;10.65;;
68987;SDS011;56038;46.080;11.116;2022-11-14T23:35:09;10.63;;;9.52;;
68987;SDS011;56038;46.080;11.116;2022-11-14T23:40:11;13.13;;;9.70;;
68987;SDS011;56038;46.080;11.116;2022-11-14T23:45:14;16.13;;;9.65;;
68987;SDS011;56038;46.080;11.116;2022-11-14T23:50:16;11.80;;;9.80;;
68987;SDS011;56038;46.080;11.116;2022-11-14T23:55:18;12.00;;;9.32;;
